<?xml version="1.0" encoding="UTF-8"?>
<gpx creator="Wikiloc - https://www.wikiloc.com" version="1.1" xmlns="http://www.topografix.com/GPX/1/1" xmlns:xsi="http://www.w3.org/2001/XMLSchema-instance" xsi:schemaLocation="http://www.topografix.com/GPX/1/1 http://www.topografix.com/GPX/1/1/gpx.xsd">
  <metadata>
    <name>Wikiloc - Lag da Pigniu</name>
    <author>
      <name>Águeda</name>
      <link href="https://www.wikiloc.com/wikiloc/user.do?id=129065">
        <text>Águeda on Wikiloc</text>
      </link>
    </author>
    <link href="https://www.wikiloc.com/hiking-trails/lag-da-pigniu-134368735">
      <text>Lag da Pigniu on Wikiloc</text>
    </link>
    <time>2023-05-10T17:49:14Z</time>
  </metadata>
  <wpt lat="46.823509" lon="9.111263">
    <ele>1407.9</ele>
    <time>2023-05-10T17:49:14Z</time>
    <name>Aparcamiento</name>
    <cmt></cmt>
    <desc></desc>
  </wpt>
  <trk>
    <name>Lag da Pigniu</name>
    <cmt></cmt>
    <desc></desc>
    <trkseg>
      <trkpt lat="46.823630" lon="9.111350">
        <ele>1411.633</ele>
        <time>2023-05-10T17:49:38Z</time>
      </trkpt>
      <trkpt lat="46.823911" lon="9.111247">
        <ele>1414.823</ele>
        <time>2023-05-10T17:50:18Z</time>
      </trkpt>
      <trkpt lat="46.824078" lon="9.111215">
        <ele>1417.215</ele>
        <time>2023-05-10T17:50:58Z</time>
      </trkpt>
      <trkpt lat="46.824196" lon="9.111144">
        <ele>1419.109</ele>
        <time>2023-05-10T17:51:38Z</time>
      </trkpt>
      <trkpt lat="46.824354" lon="9.110944">
        <ele>1422.094</ele>
        <time>2023-05-10T17:52:18Z</time>
      </trkpt>
      <trkpt lat="46.824541" lon="9.110813">
        <ele>1425.926</ele>
        <time>2023-05-10T17:52:58Z</time>
      </trkpt>
      <trkpt lat="46.824795" lon="9.110950">
        <ele>1432.727</ele>
        <time>2023-05-10T17:53:38Z</time>
      </trkpt>
      <trkpt lat="46.825052" lon="9.111076">
        <ele>1438.576</ele>
        <time>2023-05-10T17:54:18Z</time>
      </trkpt>
      <trkpt lat="46.825240" lon="9.111171">
        <ele>1442.679</ele>
        <time>2023-05-10T17:54:58Z</time>
      </trkpt>
      <trkpt lat="46.825405" lon="9.111235">
        <ele>1447.691</ele>
        <time>2023-05-10T17:55:38Z</time>
      </trkpt>
      <trkpt lat="46.825575" lon="9.111326">
        <ele>1453.980</ele>
        <time>2023-05-10T17:56:18Z</time>
      </trkpt>
      <trkpt lat="46.825592" lon="9.111465">
        <ele>1458.296</ele>
        <time>2023-05-10T17:56:58Z</time>
      </trkpt>
      <trkpt lat="46.825841" lon="9.111187">
        <ele>1455.078</ele>
        <time>2023-05-10T17:57:38Z</time>
      </trkpt>
      <trkpt lat="46.825913" lon="9.111034">
        <ele>1454.344</ele>
        <time>2023-05-10T17:58:18Z</time>
      </trkpt>
      <trkpt lat="46.826098" lon="9.110927">
        <ele>1457.105</ele>
        <time>2023-05-10T17:58:58Z</time>
      </trkpt>
      <trkpt lat="46.826480" lon="9.110527">
        <ele>1456.515</ele>
        <time>2023-05-10T17:59:38Z</time>
      </trkpt>
      <trkpt lat="46.826788" lon="9.110327">
        <ele>1460.109</ele>
        <time>2023-05-10T18:00:18Z</time>
      </trkpt>
      <trkpt lat="46.827071" lon="9.109936">
        <ele>1458.675</ele>
        <time>2023-05-10T18:00:58Z</time>
      </trkpt>
      <trkpt lat="46.827353" lon="9.109350">
        <ele>1456.747</ele>
        <time>2023-05-10T18:01:38Z</time>
      </trkpt>
      <trkpt lat="46.827587" lon="9.109068">
        <ele>1459.628</ele>
        <time>2023-05-10T18:02:18Z</time>
      </trkpt>
      <trkpt lat="46.827668" lon="9.108727">
        <ele>1457.547</ele>
        <time>2023-05-10T18:02:58Z</time>
      </trkpt>
      <trkpt lat="46.827688" lon="9.108473">
        <ele>1455.450</ele>
        <time>2023-05-10T18:03:38Z</time>
      </trkpt>
      <trkpt lat="46.827996" lon="9.107925">
        <ele>1458.152</ele>
        <time>2023-05-10T18:04:18Z</time>
      </trkpt>
      <trkpt lat="46.828218" lon="9.107527">
        <ele>1456.381</ele>
        <time>2023-05-10T18:04:58Z</time>
      </trkpt>
      <trkpt lat="46.828476" lon="9.107330">
        <ele>1457.837</ele>
        <time>2023-05-10T18:05:38Z</time>
      </trkpt>
      <trkpt lat="46.828747" lon="9.107248">
        <ele>1463.759</ele>
        <time>2023-05-10T18:06:18Z</time>
      </trkpt>
      <trkpt lat="46.829122" lon="9.106603">
        <ele>1457.887</ele>
        <time>2023-05-10T18:06:58Z</time>
      </trkpt>
      <trkpt lat="46.829583" lon="9.106222">
        <ele>1459.842</ele>
        <time>2023-05-10T18:07:38Z</time>
      </trkpt>
      <trkpt lat="46.830042" lon="9.105765">
        <ele>1457.626</ele>
        <time>2023-05-10T18:08:18Z</time>
      </trkpt>
      <trkpt lat="46.830190" lon="9.105485">
        <ele>1455.709</ele>
        <time>2023-05-10T18:08:58Z</time>
      </trkpt>
      <trkpt lat="46.830703" lon="9.105135">
        <ele>1461.999</ele>
        <time>2023-05-10T18:09:38Z</time>
      </trkpt>
      <trkpt lat="46.831022" lon="9.104818">
        <ele>1458.831</ele>
        <time>2023-05-10T18:10:18Z</time>
      </trkpt>
      <trkpt lat="46.831359" lon="9.104273">
        <ele>1456.172</ele>
        <time>2023-05-10T18:10:58Z</time>
      </trkpt>
      <trkpt lat="46.831703" lon="9.103960">
        <ele>1456.181</ele>
        <time>2023-05-10T18:11:38Z</time>
      </trkpt>
      <trkpt lat="46.832103" lon="9.103740">
        <ele>1456.034</ele>
        <time>2023-05-10T18:12:18Z</time>
      </trkpt>
      <trkpt lat="46.832668" lon="9.103603">
        <ele>1458.276</ele>
        <time>2023-05-10T18:12:58Z</time>
      </trkpt>
      <trkpt lat="46.832882" lon="9.103459">
        <ele>1459.395</ele>
        <time>2023-05-10T18:13:38Z</time>
      </trkpt>
      <trkpt lat="46.833068" lon="9.103049">
        <ele>1458.391</ele>
        <time>2023-05-10T18:14:18Z</time>
      </trkpt>
      <trkpt lat="46.833252" lon="9.102647">
        <ele>1456.323</ele>
        <time>2023-05-10T18:14:58Z</time>
      </trkpt>
      <trkpt lat="46.833627" lon="9.102398">
        <ele>1457.068</ele>
        <time>2023-05-10T18:15:38Z</time>
      </trkpt>
      <trkpt lat="46.834055" lon="9.102117">
        <ele>1456.842</ele>
        <time>2023-05-10T18:16:18Z</time>
      </trkpt>
      <trkpt lat="46.834538" lon="9.101800">
        <ele>1458.126</ele>
        <time>2023-05-10T18:16:58Z</time>
      </trkpt>
      <trkpt lat="46.834643" lon="9.101580">
        <ele>1456.709</ele>
        <time>2023-05-10T18:17:38Z</time>
      </trkpt>
      <trkpt lat="46.834898" lon="9.100987">
        <ele>1457.357</ele>
        <time>2023-05-10T18:18:18Z</time>
      </trkpt>
      <trkpt lat="46.835116" lon="9.100671">
        <ele>1455.989</ele>
        <time>2023-05-10T18:18:58Z</time>
      </trkpt>
      <trkpt lat="46.835307" lon="9.100585">
        <ele>1457.770</ele>
        <time>2023-05-10T18:19:38Z</time>
      </trkpt>
      <trkpt lat="46.835467" lon="9.100298">
        <ele>1457.229</ele>
        <time>2023-05-10T18:20:18Z</time>
      </trkpt>
      <trkpt lat="46.835578" lon="9.100068">
        <ele>1457.552</ele>
        <time>2023-05-10T18:20:58Z</time>
      </trkpt>
      <trkpt lat="46.835640" lon="9.099713">
        <ele>1454.264</ele>
        <time>2023-05-10T18:21:38Z</time>
      </trkpt>
      <trkpt lat="46.835662" lon="9.099530">
        <ele>1452.783</ele>
        <time>2023-05-10T18:22:18Z</time>
      </trkpt>
      <trkpt lat="46.835794" lon="9.099453">
        <ele>1452.139</ele>
        <time>2023-05-10T18:22:58Z</time>
      </trkpt>
      <trkpt lat="46.835972" lon="9.099462">
        <ele>1453.341</ele>
        <time>2023-05-10T18:23:38Z</time>
      </trkpt>
      <trkpt lat="46.836055" lon="9.099064">
        <ele>1454.756</ele>
        <time>2023-05-10T18:24:18Z</time>
      </trkpt>
      <trkpt lat="46.835948" lon="9.098708">
        <ele>1454.559</ele>
        <time>2023-05-10T18:24:58Z</time>
      </trkpt>
      <trkpt lat="46.835785" lon="9.098263">
        <ele>1455.714</ele>
        <time>2023-05-10T18:25:38Z</time>
      </trkpt>
      <trkpt lat="46.835651" lon="9.098096">
        <ele>1454.009</ele>
        <time>2023-05-10T18:26:18Z</time>
      </trkpt>
      <trkpt lat="46.835565" lon="9.097744">
        <ele>1454.486</ele>
        <time>2023-05-10T18:26:58Z</time>
      </trkpt>
      <trkpt lat="46.835557" lon="9.097535">
        <ele>1455.848</ele>
        <time>2023-05-10T18:27:38Z</time>
      </trkpt>
      <trkpt lat="46.835461" lon="9.097255">
        <ele>1455.239</ele>
        <time>2023-05-10T18:28:18Z</time>
      </trkpt>
      <trkpt lat="46.835523" lon="9.096457">
        <ele>1456.628</ele>
        <time>2023-05-10T18:28:58Z</time>
      </trkpt>
      <trkpt lat="46.835514" lon="9.096328">
        <ele>1456.361</ele>
        <time>2023-05-10T18:29:38Z</time>
      </trkpt>
      <trkpt lat="46.835464" lon="9.096190">
        <ele>1455.453</ele>
        <time>2023-05-10T18:30:18Z</time>
      </trkpt>
      <trkpt lat="46.835334" lon="9.095959">
        <ele>1456.312</ele>
        <time>2023-05-10T18:30:58Z</time>
      </trkpt>
      <trkpt lat="46.834929" lon="9.096264">
        <ele>1456.148</ele>
        <time>2023-05-10T18:31:38Z</time>
      </trkpt>
      <trkpt lat="46.834770" lon="9.096454">
        <ele>1455.210</ele>
        <time>2023-05-10T18:32:18Z</time>
      </trkpt>
      <trkpt lat="46.834554" lon="9.096740">
        <ele>1454.221</ele>
        <time>2023-05-10T18:32:58Z</time>
      </trkpt>
      <trkpt lat="46.834265" lon="9.097020">
        <ele>1454.441</ele>
        <time>2023-05-10T18:33:38Z</time>
      </trkpt>
      <trkpt lat="46.833949" lon="9.097244">
        <ele>1454.205</ele>
        <time>2023-05-10T18:34:18Z</time>
      </trkpt>
      <trkpt lat="46.833504" lon="9.097501">
        <ele>1452.809</ele>
        <time>2023-05-10T18:34:58Z</time>
      </trkpt>
      <trkpt lat="46.833203" lon="9.097629">
        <ele>1456.583</ele>
        <time>2023-05-10T18:35:38Z</time>
      </trkpt>
      <trkpt lat="46.832809" lon="9.098189">
        <ele>1455.245</ele>
        <time>2023-05-10T18:36:18Z</time>
      </trkpt>
      <trkpt lat="46.832566" lon="9.098552">
        <ele>1453.656</ele>
        <time>2023-05-10T18:36:58Z</time>
      </trkpt>
      <trkpt lat="46.832280" lon="9.098633">
        <ele>1455.985</ele>
        <time>2023-05-10T18:37:38Z</time>
      </trkpt>
      <trkpt lat="46.832198" lon="9.098838">
        <ele>1454.048</ele>
        <time>2023-05-10T18:38:18Z</time>
      </trkpt>
      <trkpt lat="46.831990" lon="9.099004">
        <ele>1454.160</ele>
        <time>2023-05-10T18:38:58Z</time>
      </trkpt>
      <trkpt lat="46.831719" lon="9.099491">
        <ele>1455.559</ele>
        <time>2023-05-10T18:39:38Z</time>
      </trkpt>
      <trkpt lat="46.831519" lon="9.099835">
        <ele>1453.935</ele>
        <time>2023-05-10T18:40:18Z</time>
      </trkpt>
      <trkpt lat="46.831155" lon="9.100096">
        <ele>1453.767</ele>
        <time>2023-05-10T18:40:58Z</time>
      </trkpt>
      <trkpt lat="46.830875" lon="9.100137">
        <ele>1456.154</ele>
        <time>2023-05-10T18:41:38Z</time>
      </trkpt>
      <trkpt lat="46.830725" lon="9.100223">
        <ele>1457.656</ele>
        <time>2023-05-10T18:42:18Z</time>
      </trkpt>
      <trkpt lat="46.830354" lon="9.100672">
        <ele>1457.711</ele>
        <time>2023-05-10T18:42:58Z</time>
      </trkpt>
      <trkpt lat="46.830168" lon="9.100998">
        <ele>1460.509</ele>
        <time>2023-05-10T18:43:38Z</time>
      </trkpt>
      <trkpt lat="46.830023" lon="9.101179">
        <ele>1463.546</ele>
        <time>2023-05-10T18:44:18Z</time>
      </trkpt>
      <trkpt lat="46.829889" lon="9.101524">
        <ele>1459.228</ele>
        <time>2023-05-10T18:44:58Z</time>
      </trkpt>
      <trkpt lat="46.829624" lon="9.101736">
        <ele>1462.599</ele>
        <time>2023-05-10T18:45:38Z</time>
      </trkpt>
      <trkpt lat="46.829467" lon="9.101880">
        <ele>1465.188</ele>
        <time>2023-05-10T18:46:18Z</time>
      </trkpt>
      <trkpt lat="46.829274" lon="9.101865">
        <ele>1474.311</ele>
        <time>2023-05-10T18:46:58Z</time>
      </trkpt>
      <trkpt lat="46.829130" lon="9.102044">
        <ele>1474.223</ele>
        <time>2023-05-10T18:47:38Z</time>
      </trkpt>
      <trkpt lat="46.829141" lon="9.102242">
        <ele>1467.332</ele>
        <time>2023-05-10T18:48:18Z</time>
      </trkpt>
      <trkpt lat="46.829030" lon="9.102566">
        <ele>1460.868</ele>
        <time>2023-05-10T18:48:58Z</time>
      </trkpt>
      <trkpt lat="46.828918" lon="9.102767">
        <ele>1458.670</ele>
        <time>2023-05-10T18:49:38Z</time>
      </trkpt>
      <trkpt lat="46.828642" lon="9.103064">
        <ele>1457.245</ele>
        <time>2023-05-10T18:50:18Z</time>
      </trkpt>
      <trkpt lat="46.828429" lon="9.103206">
        <ele>1459.247</ele>
        <time>2023-05-10T18:50:58Z</time>
      </trkpt>
      <trkpt lat="46.828265" lon="9.103267">
        <ele>1466.611</ele>
        <time>2023-05-10T18:51:38Z</time>
      </trkpt>
      <trkpt lat="46.828088" lon="9.103593">
        <ele>1460.409</ele>
        <time>2023-05-10T18:52:18Z</time>
      </trkpt>
      <trkpt lat="46.828077" lon="9.103725">
        <ele>1456.485</ele>
        <time>2023-05-10T18:52:58Z</time>
      </trkpt>
      <trkpt lat="46.827741" lon="9.103953">
        <ele>1456.087</ele>
        <time>2023-05-10T18:53:38Z</time>
      </trkpt>
      <trkpt lat="46.827370" lon="9.104076">
        <ele>1458.028</ele>
        <time>2023-05-10T18:54:18Z</time>
      </trkpt>
      <trkpt lat="46.826756" lon="9.104715">
        <ele>1455.517</ele>
        <time>2023-05-10T18:54:58Z</time>
      </trkpt>
      <trkpt lat="46.826665" lon="9.104873">
        <ele>1454.360</ele>
        <time>2023-05-10T18:55:38Z</time>
      </trkpt>
      <trkpt lat="46.826510" lon="9.105091">
        <ele>1455.282</ele>
        <time>2023-05-10T18:56:18Z</time>
      </trkpt>
      <trkpt lat="46.826362" lon="9.105431">
        <ele>1454.281</ele>
        <time>2023-05-10T18:56:58Z</time>
      </trkpt>
      <trkpt lat="46.826074" lon="9.105710">
        <ele>1456.317</ele>
        <time>2023-05-10T18:57:38Z</time>
      </trkpt>
      <trkpt lat="46.825851" lon="9.105958">
        <ele>1454.619</ele>
        <time>2023-05-10T18:58:18Z</time>
      </trkpt>
      <trkpt lat="46.825713" lon="9.106236">
        <ele>1454.529</ele>
        <time>2023-05-10T18:58:58Z</time>
      </trkpt>
      <trkpt lat="46.825466" lon="9.106484">
        <ele>1455.400</ele>
        <time>2023-05-10T18:59:38Z</time>
      </trkpt>
      <trkpt lat="46.825041" lon="9.107038">
        <ele>1456.320</ele>
        <time>2023-05-10T19:00:18Z</time>
      </trkpt>
      <trkpt lat="46.824823" lon="9.107297">
        <ele>1458.709</ele>
        <time>2023-05-10T19:00:58Z</time>
      </trkpt>
      <trkpt lat="46.824756" lon="9.107558">
        <ele>1458.073</ele>
        <time>2023-05-10T19:01:38Z</time>
      </trkpt>
      <trkpt lat="46.824750" lon="9.107961">
        <ele>1456.855</ele>
        <time>2023-05-10T19:02:18Z</time>
      </trkpt>
      <trkpt lat="46.824741" lon="9.108164">
        <ele>1456.346</ele>
        <time>2023-05-10T19:02:58Z</time>
      </trkpt>
      <trkpt lat="46.824797" lon="9.108489">
        <ele>1448.455</ele>
        <time>2023-05-10T19:03:38Z</time>
      </trkpt>
      <trkpt lat="46.825085" lon="9.109437">
        <ele>1443.158</ele>
        <time>2023-05-10T19:04:18Z</time>
      </trkpt>
      <trkpt lat="46.825417" lon="9.110485">
        <ele>1444.910</ele>
        <time>2023-05-10T19:04:58Z</time>
      </trkpt>
      <trkpt lat="46.825680" lon="9.111344">
        <ele>1456.839</ele>
        <time>2023-05-10T19:05:38Z</time>
      </trkpt>
      <trkpt lat="46.825571" lon="9.111544">
        <ele>1459.955</ele>
        <time>2023-05-10T19:06:18Z</time>
      </trkpt>
      <trkpt lat="46.825503" lon="9.111284">
        <ele>1451.187</ele>
        <time>2023-05-10T19:06:58Z</time>
      </trkpt>
      <trkpt lat="46.825141" lon="9.111091">
        <ele>1439.993</ele>
        <time>2023-05-10T19:07:38Z</time>
      </trkpt>
      <trkpt lat="46.824857" lon="9.110948">
        <ele>1433.965</ele>
        <time>2023-05-10T19:08:18Z</time>
      </trkpt>
      <trkpt lat="46.824677" lon="9.110867">
        <ele>1429.421</ele>
        <time>2023-05-10T19:08:58Z</time>
      </trkpt>
      <trkpt lat="46.824472" lon="9.110848">
        <ele>1424.709</ele>
        <time>2023-05-10T19:09:38Z</time>
      </trkpt>
      <trkpt lat="46.824268" lon="9.111066">
        <ele>1420.530</ele>
        <time>2023-05-10T19:10:18Z</time>
      </trkpt>
      <trkpt lat="46.824020" lon="9.111175">
        <ele>1415.772</ele>
        <time>2023-05-10T19:10:58Z</time>
      </trkpt>
      <trkpt lat="46.823746" lon="9.111344">
        <ele>1413.673</ele>
        <time>2023-05-10T19:11:38Z</time>
      </trkpt>
      <trkpt lat="46.823618" lon="9.111469">
        <ele>1413.322</ele>
        <time>2023-05-10T19:12:18Z</time>
      </trkpt>
    </trkseg>
  </trk></gpx>